sensor_id;sensor_type;location;lat;lon;timestamp;pressure;altitude;pressure_sealevel;temperature;humidity
52651;BME280;38537;47.226;39.702;2023-01-10T00:01:39;102479.88;;;-9.08;59.56
52651;BME280;38537;47.226;39.702;2023-01-10T00:04:06;102469.34;;;-9.11;59.66
52651;BME280;38537;47.226;39.702;2023-01-10T00:06:34;102489.28;;;-9.23;59.71
52651;BME280;38537;47.226;39.702;2023-01-10T00:09:02;102498.94;;;-9.52;59.69
52651;BME280;38537;47.226;39.702;2023-01-10T00:11:29;102484.69;;;-9.43;60.24
52651;BME280;38537;47.226;39.702;2023-01-10T00:14:15;102481.03;;;-9.10;60.86
52651;BME280;38537;47.226;39.702;2023-01-10T00:16:43;102482.91;;;-9.22;60.27
52651;BME280;38537;47.226;39.702;2023-01-10T00:19:13;102465.38;;;-9.39;59.80
52651;BME280;38537;47.226;39.702;2023-01-10T00:21:40;102475.75;;;-9.55;59.45
52651;BME280;38537;47.226;39.702;2023-01-10T00:24:10;102497.97;;;-9.62;60.16
52651;BME280;38537;47.226;39.702;2023-01-10T00:26:48;102500.16;;;-9.34;60.47
52651;BME280;38537;47.226;39.702;2023-01-10T00:29:21;102492.34;;;-9.16;60.78
52651;BME280;38537;47.226;39.702;2023-01-10T00:31:50;102483.81;;;-9.32;59.78
52651;BME280;38537;47.226;39.702;2023-01-10T00:34:17;102487.78;;;-8.84;60.74
52651;BME280;38537;47.226;39.702;2023-01-10T00:36:46;102514.69;;;-8.71;59.41
52651;BME280;38537;47.226;39.702;2023-01-10T00:39:15;102490.13;;;-8.79;59.24
52651;BME280;38537;47.226;39.702;2023-01-10T00:41:44;102471.69;;;-8.85;59.86
52651;BME280;38537;47.226;39.702;2023-01-10T00:44:32;102517.69;;;-8.85;59.15
52651;BME280;38537;47.226;39.702;2023-01-10T00:46:59;102485.97;;;-9.15;58.81
52651;BME280;38537;47.226;39.702;2023-01-10T00:49:27;102491.13;;;-9.23;59.60
52651;BME280;38537;47.226;39.702;2023-01-10T00:51:55;102480.75;;;-9.50;59.57
52651;BME280;38537;47.226;39.702;2023-01-10T00:54:24;102511.75;;;-9.54;60.15
52651;BME280;38537;47.226;39.702;2023-01-10T00:56:52;102510.25;;;-9.70;59.79
52651;BME280;38537;47.226;39.702;2023-01-10T00:59:20;102499.47;;;-9.58;60.58
52651;BME280;38537;47.226;39.702;2023-01-10T01:01:49;102514.91;;;-9.49;60.55
52651;BME280;38537;47.226;39.702;2023-01-10T01:04:16;102504.78;;;-9.25;60.15
52651;BME280;38537;47.226;39.702;2023-01-10T01:06:45;102504.31;;;-9.30;59.85
52651;BME280;38537;47.226;39.702;2023-01-10T01:09:14;102498.28;;;-8.90;60.04
52651;BME280;38537;47.226;39.702;2023-01-10T01:11:41;102499.47;;;-8.83;59.65
52651;BME280;38537;47.226;39.702;2023-01-10T01:14:09;102498.19;;;-8.68;59.54
52651;BME280;38537;47.226;39.702;2023-01-10T01:16:37;102494.13;;;-8.94;59.02
52651;BME280;38537;47.226;39.702;2023-01-10T01:19:04;102489.69;;;-8.95;59.39
52651;BME280;38537;47.226;39.702;2023-01-10T01:21:32;102501.47;;;-9.17;58.94
52651;BME280;38537;47.226;39.702;2023-01-10T01:24:00;102515.72;;;-9.26;59.28
52651;BME280;38537;47.226;39.702;2023-01-10T01:26:27;102492.50;;;-9.29;59.89
52651;BME280;38537;47.226;39.702;2023-01-10T01:28:54;102487.56;;;-9.24;60.17
52651;BME280;38537;47.226;39.702;2023-01-10T01:31:22;102504.72;;;-9.03;60.05
52651;BME280;38537;47.226;39.702;2023-01-10T01:33:49;102516.75;;;-9.39;59.00
52651;BME280;38537;47.226;39.702;2023-01-10T01:36:18;102513.56;;;-9.32;59.97
52651;BME280;38537;47.226;39.702;2023-01-10T01:38:46;102523.50;;;-9.33;59.84
52651;BME280;38537;47.226;39.702;2023-01-10T01:41:14;102502.75;;;-9.32;59.66
52651;BME280;38537;47.226;39.702;2023-01-10T01:44:15;102523.66;;;-9.57;60.03
52651;BME280;38537;47.226;39.702;2023-01-10T01:46:47;102513.94;;;-9.93;60.04
52651;BME280;38537;47.226;39.702;2023-01-10T01:49:21;102505.84;;;-9.93;60.69
52651;BME280;38537;47.226;39.702;2023-01-10T01:51:57;102513.22;;;-9.73;61.06
52651;BME280;38537;47.226;39.702;2023-01-10T01:54:26;102500.69;;;-9.85;60.72
52651;BME280;38537;47.226;39.702;2023-01-10T01:57:10;102528.44;;;-9.72;60.96
52651;BME280;38537;47.226;39.702;2023-01-10T01:59:44;102523.56;;;-10.00;60.54
52651;BME280;38537;47.226;39.702;2023-01-10T02:02:22;102528.34;;;-10.04;61.28
52651;BME280;38537;47.226;39.702;2023-01-10T02:05:05;102519.84;;;-10.10;61.63
52651;BME280;38537;47.226;39.702;2023-01-10T02:07:36;102539.25;;;-9.94;61.76
52651;BME280;38537;47.226;39.702;2023-01-10T02:10:16;102522.78;;;-10.13;61.63
52651;BME280;38537;47.226;39.702;2023-01-10T02:12:49;102552.50;;;-10.13;61.16
52651;BME280;38537;47.226;39.702;2023-01-10T02:15:18;102555.19;;;-10.13;61.35
52651;BME280;38537;47.226;39.702;2023-01-10T02:17:47;102519.13;;;-10.23;61.29
52651;BME280;38537;47.226;39.702;2023-01-10T02:20:18;102552.16;;;-9.97;61.50
52651;BME280;38537;47.226;39.702;2023-01-10T02:28:44;102548.34;;;-9.50;60.38
52651;BME280;38537;47.226;39.702;2023-01-10T02:31:29;102554.97;;;-9.32;61.24
52651;BME280;38537;47.226;39.702;2023-01-10T02:42:44;102559.88;;;-10.04;60.91
52651;BME280;38537;47.226;39.702;2023-01-10T02:46:10;102564.19;;;-9.68;61.76
52651;BME280;38537;47.226;39.702;2023-01-10T02:48:10;102574.28;;;-9.48;60.72
52651;BME280;38537;47.226;39.702;2023-01-10T02:50:45;102583.88;;;-9.66;59.78
52651;BME280;38537;47.226;39.702;2023-01-10T02:53:25;102572.69;;;-9.84;59.91
52651;BME280;38537;47.226;39.702;2023-01-10T02:56:15;102589.28;;;-9.55;60.45
52651;BME280;38537;47.226;39.702;2023-01-10T03:01:45;102583.22;;;-9.25;59.91
52651;BME280;38537;47.226;39.702;2023-01-10T03:15:26;102560.00;;;-9.50;59.80
52651;BME280;38537;47.226;39.702;2023-01-10T03:17:58;102590.63;;;-9.38;59.35
52651;BME280;38537;47.226;39.702;2023-01-10T03:20:31;102562.75;;;-8.95;60.04
52651;BME280;38537;47.226;39.702;2023-01-10T03:23:02;102567.38;;;-8.75;59.76
52651;BME280;38537;47.226;39.702;2023-01-10T03:25:35;102560.59;;;-8.70;59.01
52651;BME280;38537;47.226;39.702;2023-01-10T03:28:51;102565.66;;;-8.87;58.19
52651;BME280;38537;47.226;39.702;2023-01-10T03:31:06;102579.59;;;-8.92;57.79
52651;BME280;38537;47.226;39.702;2023-01-10T03:33:36;102541.41;;;-9.10;58.52
52651;BME280;38537;47.226;39.702;2023-01-10T03:36:29;102570.06;;;-8.75;59.11
52651;BME280;38537;47.226;39.702;2023-01-10T03:39:22;102584.78;;;-8.89;58.11
52651;BME280;38537;47.226;39.702;2023-01-10T03:45:28;102582.00;;;-9.10;58.08
52651;BME280;38537;47.226;39.702;2023-01-10T03:47:57;102551.00;;;-9.28;58.23
52651;BME280;38537;47.226;39.702;2023-01-10T03:50:28;102567.97;;;-9.26;57.78
52651;BME280;38537;47.226;39.702;2023-01-10T03:52:57;102559.16;;;-9.50;58.24
52651;BME280;38537;47.226;39.702;2023-01-10T03:55:27;102577.63;;;-9.55;57.89
52651;BME280;38537;47.226;39.702;2023-01-10T03:57:55;102582.13;;;-9.67;58.60
52651;BME280;38537;47.226;39.702;2023-01-10T04:00:22;102587.44;;;-9.43;58.80
52651;BME280;38537;47.226;39.702;2023-01-10T04:02:50;102582.88;;;-9.43;58.74
52651;BME280;38537;47.226;39.702;2023-01-10T04:05:17;102614.69;;;-9.24;58.89
52651;BME280;38537;47.226;39.702;2023-01-10T04:07:45;102558.19;;;-9.60;58.16
52651;BME280;38537;47.226;39.702;2023-01-10T04:10:13;102593.56;;;-9.52;58.09
52651;BME280;38537;47.226;39.702;2023-01-10T04:12:42;102613.34;;;-9.29;58.85
52651;BME280;38537;47.226;39.702;2023-01-10T04:15:09;102613.97;;;-9.26;58.57
52651;BME280;38537;47.226;39.702;2023-01-10T04:17:37;102625.28;;;-9.21;58.54
52651;BME280;38537;47.226;39.702;2023-01-10T04:20:05;102637.56;;;-9.28;58.22
52651;BME280;38537;47.226;39.702;2023-01-10T04:22:32;102641.25;;;-9.18;58.23
52651;BME280;38537;47.226;39.702;2023-01-10T04:25:00;102622.19;;;-9.05;58.33
52651;BME280;38537;47.226;39.702;2023-01-10T04:27:29;102623.06;;;-9.16;57.77
52651;BME280;38537;47.226;39.702;2023-01-10T04:29:56;102637.50;;;-8.83;58.13
52651;BME280;38537;47.226;39.702;2023-01-10T04:32:25;102635.06;;;-8.86;57.61
52651;BME280;38537;47.226;39.702;2023-01-10T04:34:52;102649.19;;;-8.72;57.63
52651;BME280;38537;47.226;39.702;2023-01-10T04:37:20;102645.63;;;-8.72;57.33
52651;BME280;38537;47.226;39.702;2023-01-10T04:39:47;102641.00;;;-9.04;57.24
52651;BME280;38537;47.226;39.702;2023-01-10T04:42:16;102641.44;;;-8.87;57.80
52651;BME280;38537;47.226;39.702;2023-01-10T04:44:45;102649.97;;;-8.92;57.30
52651;BME280;38537;47.226;39.702;2023-01-10T04:47:13;102657.00;;;-8.89;57.34
52651;BME280;38537;47.226;39.702;2023-01-10T04:49:40;102657.09;;;-9.02;57.38
52651;BME280;38537;47.226;39.702;2023-01-10T04:52:09;102663.53;;;-9.14;57.27
52651;BME280;38537;47.226;39.702;2023-01-10T04:54:37;102634.63;;;-9.47;57.02
52651;BME280;38537;47.226;39.702;2023-01-10T04:57:05;102647.63;;;-9.75;57.44
52651;BME280;38537;47.226;39.702;2023-01-10T04:59:33;102661.34;;;-9.89;57.93
52651;BME280;38537;47.226;39.702;2023-01-10T05:02:00;102651.91;;;-9.72;59.02
52651;BME280;38537;47.226;39.702;2023-01-10T05:04:28;102664.31;;;-9.81;58.56
52651;BME280;38537;47.226;39.702;2023-01-10T05:06:56;102659.44;;;-9.42;58.68
52651;BME280;38537;47.226;39.702;2023-01-10T05:09:23;102655.91;;;-9.20;58.67
52651;BME280;38537;47.226;39.702;2023-01-10T05:11:53;102665.25;;;-9.36;57.51
52651;BME280;38537;47.226;39.702;2023-01-10T05:14:21;102665.84;;;-9.43;57.61
52651;BME280;38537;47.226;39.702;2023-01-10T05:16:48;102674.22;;;-9.24;58.07
52651;BME280;38537;47.226;39.702;2023-01-10T05:19:16;102669.53;;;-9.55;56.90
52651;BME280;38537;47.226;39.702;2023-01-10T05:21:43;102696.81;;;-9.58;57.27
52651;BME280;38537;47.226;39.702;2023-01-10T05:24:11;102682.34;;;-9.35;58.10
52651;BME280;38537;47.226;39.702;2023-01-10T05:26:38;102667.06;;;-9.47;57.40
52651;BME280;38537;47.226;39.702;2023-01-10T05:29:09;102685.00;;;-9.57;56.97
52651;BME280;38537;47.226;39.702;2023-01-10T05:31:37;102687.09;;;-9.61;57.17
52651;BME280;38537;47.226;39.702;2023-01-10T05:34:05;102687.09;;;-9.61;57.02
52651;BME280;38537;47.226;39.702;2023-01-10T05:36:33;102708.88;;;-9.40;57.07
52651;BME280;38537;47.226;39.702;2023-01-10T05:39:00;102712.31;;;-9.38;57.08
52651;BME280;38537;47.226;39.702;2023-01-10T05:41:28;102722.56;;;-9.65;56.30
52651;BME280;38537;47.226;39.702;2023-01-10T05:43:55;102713.38;;;-9.52;57.06
52651;BME280;38537;47.226;39.702;2023-01-10T05:46:23;102704.06;;;-9.48;56.96
52651;BME280;38537;47.226;39.702;2023-01-10T05:48:53;102708.31;;;-9.68;56.74
52651;BME280;38537;47.226;39.702;2023-01-10T05:51:21;102727.28;;;-9.45;57.37
52651;BME280;38537;47.226;39.702;2023-01-10T05:53:49;102694.03;;;-9.12;57.34
52651;BME280;38537;47.226;39.702;2023-01-10T05:56:17;102708.38;;;-9.23;55.61
52651;BME280;38537;47.226;39.702;2023-01-10T05:58:44;102716.50;;;-9.01;56.54
52651;BME280;38537;47.226;39.702;2023-01-10T06:01:15;102703.72;;;-8.98;56.20
52651;BME280;38537;47.226;39.702;2023-01-10T06:03:43;102719.22;;;-8.78;55.98
52651;BME280;38537;47.226;39.702;2023-01-10T06:06:10;102732.97;;;-8.59;54.94
52651;BME280;38537;47.226;39.702;2023-01-10T06:08:38;102714.94;;;-8.38;55.98
52651;BME280;38537;47.226;39.702;2023-01-10T06:11:08;102727.34;;;-8.24;55.15
52651;BME280;38537;47.226;39.702;2023-01-10T06:13:36;102724.94;;;-8.17;55.35
52651;BME280;38537;47.226;39.702;2023-01-10T06:16:04;102736.53;;;-8.15;54.50
52651;BME280;38537;47.226;39.702;2023-01-10T06:18:32;102711.88;;;-8.33;54.24
52651;BME280;38537;47.226;39.702;2023-01-10T06:20:59;102741.50;;;-8.32;55.08
52651;BME280;38537;47.226;39.702;2023-01-10T06:23:27;102711.06;;;-8.24;55.06
52651;BME280;38537;47.226;39.702;2023-01-10T06:25:56;102715.94;;;-8.39;54.39
52651;BME280;38537;47.226;39.702;2023-01-10T06:28:23;102705.41;;;-8.00;55.44
52651;BME280;38537;47.226;39.702;2023-01-10T06:30:51;102702.16;;;-7.83;54.94
52651;BME280;38537;47.226;39.702;2023-01-10T06:33:19;102711.69;;;-7.47;54.90
52651;BME280;38537;47.226;39.702;2023-01-10T06:35:46;102718.31;;;-7.09;54.53
52651;BME280;38537;47.226;39.702;2023-01-10T06:38:14;102742.00;;;-7.42;52.99
52651;BME280;38537;47.226;39.702;2023-01-10T06:40:42;102716.13;;;-7.46;53.00
52651;BME280;38537;47.226;39.702;2023-01-10T06:43:10;102748.94;;;-7.49;53.14
52651;BME280;38537;47.226;39.702;2023-01-10T06:45:37;102728.34;;;-7.51;52.72
52651;BME280;38537;47.226;39.702;2023-01-10T06:48:05;102729.16;;;-7.61;52.79
52651;BME280;38537;47.226;39.702;2023-01-10T06:50:33;102716.25;;;-7.47;53.21
52651;BME280;38537;47.226;39.702;2023-01-10T06:53:02;102716.81;;;-7.23;53.34
52651;BME280;38537;47.226;39.702;2023-01-10T06:55:30;102732.78;;;-6.69;53.05
52651;BME280;38537;47.226;39.702;2023-01-10T06:58:02;102721.56;;;-6.45;52.46
52651;BME280;38537;47.226;39.702;2023-01-10T07:00:31;102723.41;;;-6.45;52.29
52651;BME280;38537;47.226;39.702;2023-01-10T07:03:00;102720.16;;;-6.39;51.48
52651;BME280;38537;47.226;39.702;2023-01-10T07:05:28;102722.22;;;-5.93;52.81
52651;BME280;38537;47.226;39.702;2023-01-10T07:07:56;102732.63;;;-5.79;52.24
52651;BME280;38537;47.226;39.702;2023-01-10T07:10:27;102726.63;;;-5.73;52.16
52651;BME280;38537;47.226;39.702;2023-01-10T07:12:55;102732.66;;;-6.08;50.35
52651;BME280;38537;47.226;39.702;2023-01-10T07:15:27;102744.22;;;-5.77;51.47
52651;BME280;38537;47.226;39.702;2023-01-10T07:17:56;102725.59;;;-5.53;51.51
52651;BME280;38537;47.226;39.702;2023-01-10T07:20:27;102738.56;;;-5.18;51.15
52651;BME280;38537;47.226;39.702;2023-01-10T07:22:57;102717.28;;;-5.51;49.89
52651;BME280;38537;47.226;39.702;2023-01-10T07:25:27;102740.03;;;-5.33;50.17
52651;BME280;38537;47.226;39.702;2023-01-10T07:27:56;102731.47;;;-5.47;49.12
52651;BME280;38537;47.226;39.702;2023-01-10T07:30:24;102714.56;;;-5.51;48.96
52651;BME280;38537;47.226;39.702;2023-01-10T07:32:53;102722.47;;;-5.87;48.69
52651;BME280;38537;47.226;39.702;2023-01-10T07:35:21;102711.75;;;-5.88;49.13
52651;BME280;38537;47.226;39.702;2023-01-10T07:37:50;102714.00;;;-5.74;49.42
52651;BME280;38537;47.226;39.702;2023-01-10T07:40:19;102731.28;;;-5.36;50.05
52651;BME280;38537;47.226;39.702;2023-01-10T07:42:47;102726.78;;;-5.08;50.05
52651;BME280;38537;47.226;39.702;2023-01-10T07:45:14;102710.81;;;-4.94;49.19
52651;BME280;38537;47.226;39.702;2023-01-10T07:47:42;102715.81;;;-5.26;48.65
52651;BME280;38537;47.226;39.702;2023-01-10T07:50:09;102737.03;;;-5.20;49.32
52651;BME280;38537;47.226;39.702;2023-01-10T07:52:37;102713.88;;;-5.06;49.15
52651;BME280;38537;47.226;39.702;2023-01-10T07:55:05;102722.22;;;-5.18;48.12
52651;BME280;38537;47.226;39.702;2023-01-10T07:57:32;102733.53;;;-4.66;48.93
52651;BME280;38537;47.226;39.702;2023-01-10T08:00:00;102711.19;;;-4.52;49.41
52651;BME280;38537;47.226;39.702;2023-01-10T08:02:30;102721.41;;;-4.54;48.43
52651;BME280;38537;47.226;39.702;2023-01-10T08:04:58;102729.41;;;-4.52;49.05
52651;BME280;38537;47.226;39.702;2023-01-10T08:07:28;102731.16;;;-4.06;49.59
52651;BME280;38537;47.226;39.702;2023-01-10T08:09:56;102728.63;;;-3.90;48.09
52651;BME280;38537;47.226;39.702;2023-01-10T08:12:23;102725.34;;;-3.75;47.40
52651;BME280;38537;47.226;39.702;2023-01-10T08:14:51;102718.75;;;-3.47;48.20
52651;BME280;38537;47.226;39.702;2023-01-10T08:17:19;102732.94;;;-3.43;47.80
52651;BME280;38537;47.226;39.702;2023-01-10T08:19:46;102714.72;;;-3.61;46.85
52651;BME280;38537;47.226;39.702;2023-01-10T08:22:14;102738.19;;;-3.68;47.78
52651;BME280;38537;47.226;39.702;2023-01-10T08:24:41;102700.69;;;-4.01;46.31
52651;BME280;38537;47.226;39.702;2023-01-10T08:27:09;102714.13;;;-3.90;46.82
52651;BME280;38537;47.226;39.702;2023-01-10T08:29:37;102721.34;;;-4.17;45.95
52651;BME280;38537;47.226;39.702;2023-01-10T08:32:04;102711.59;;;-4.19;46.98
52651;BME280;38537;47.226;39.702;2023-01-10T08:34:32;102722.28;;;-5.37;44.93
52651;BME280;38537;47.226;39.702;2023-01-10T08:36:59;102725.19;;;-5.87;46.54
52651;BME280;38537;47.226;39.702;2023-01-10T08:39:28;102721.69;;;-5.31;48.40
52651;BME280;38537;47.226;39.702;2023-01-10T08:41:56;102731.00;;;-5.33;47.22
52651;BME280;38537;47.226;39.702;2023-01-10T08:44:24;102730.72;;;-5.21;47.93
52651;BME280;38537;47.226;39.702;2023-01-10T08:46:52;102715.78;;;-5.17;47.37
52651;BME280;38537;47.226;39.702;2023-01-10T08:49:20;102718.16;;;-5.70;46.53
52651;BME280;38537;47.226;39.702;2023-01-10T08:51:47;102702.44;;;-5.85;47.82
52651;BME280;38537;47.226;39.702;2023-01-10T08:54:15;102701.47;;;-5.94;48.34
52651;BME280;38537;47.226;39.702;2023-01-10T08:56:42;102683.41;;;-6.14;47.27
52651;BME280;38537;47.226;39.702;2023-01-10T08:59:10;102702.56;;;-6.35;48.17
52651;BME280;38537;47.226;39.702;2023-01-10T09:01:38;102683.41;;;-6.14;48.57
52651;BME280;38537;47.226;39.702;2023-01-10T09:04:05;102696.00;;;-6.04;48.71
52651;BME280;38537;47.226;39.702;2023-01-10T09:06:33;102708.69;;;-6.43;47.81
52651;BME280;38537;47.226;39.702;2023-01-10T09:09:00;102697.13;;;-6.85;48.14
52651;BME280;38537;47.226;39.702;2023-01-10T09:11:28;102691.28;;;-6.80;48.38
52651;BME280;38537;47.226;39.702;2023-01-10T09:13:55;102698.94;;;-6.45;48.79
52651;BME280;38537;47.226;39.702;2023-01-10T09:16:23;102700.19;;;-6.69;48.52
52651;BME280;38537;47.226;39.702;2023-01-10T09:18:50;102721.97;;;-6.89;48.44
52651;BME280;38537;47.226;39.702;2023-01-10T09:21:18;102698.63;;;-7.02;48.86
52651;BME280;38537;47.226;39.702;2023-01-10T09:23:46;102716.44;;;-7.39;48.63
52651;BME280;38537;47.226;39.702;2023-01-10T09:26:14;102700.06;;;-7.58;49.27
52651;BME280;38537;47.226;39.702;2023-01-10T09:28:41;102698.72;;;-7.85;49.73
52651;BME280;38537;47.226;39.702;2023-01-10T09:31:09;102704.66;;;-7.70;50.54
52651;BME280;38537;47.226;39.702;2023-01-10T09:33:39;102689.72;;;-7.65;50.25
52651;BME280;38537;47.226;39.702;2023-01-10T09:36:13;102703.81;;;-7.50;50.61
52651;BME280;38537;47.226;39.702;2023-01-10T09:38:42;102722.44;;;-7.77;50.53
52651;BME280;38537;47.226;39.702;2023-01-10T09:41:21;102703.47;;;-7.56;51.35
52651;BME280;38537;47.226;39.702;2023-01-10T09:44:48;102715.84;;;-7.43;50.83
52651;BME280;38537;47.226;39.702;2023-01-10T09:47:04;102702.94;;;-7.92;49.91
52651;BME280;38537;47.226;39.702;2023-01-10T09:52:48;102707.50;;;-7.92;51.48
52651;BME280;38537;47.226;39.702;2023-01-10T09:57:47;102691.41;;;-8.05;51.46
52651;BME280;38537;47.226;39.702;2023-01-10T10:00:21;102667.66;;;-8.13;51.61
52651;BME280;38537;47.226;39.702;2023-01-10T10:02:52;102681.22;;;-8.13;50.96
52651;BME280;38537;47.226;39.702;2023-01-10T10:05:21;102690.56;;;-8.38;51.13
52651;BME280;38537;47.226;39.702;2023-01-10T10:07:53;102681.28;;;-8.24;51.84
52651;BME280;38537;47.226;39.702;2023-01-10T10:10:42;102681.06;;;-8.32;51.49
52651;BME280;38537;47.226;39.702;2023-01-10T10:30:02;102694.44;;;-8.62;52.38
52651;BME280;38537;47.226;39.702;2023-01-10T10:32:47;102670.00;;;-8.83;51.85
52651;BME280;38537;47.226;39.702;2023-01-10T10:37:57;102657.19;;;-8.70;51.81
52651;BME280;38537;47.226;39.702;2023-01-10T10:40:31;102663.44;;;-8.26;52.16
52651;BME280;38537;47.226;39.702;2023-01-10T10:43:11;102646.63;;;-8.20;51.60
52651;BME280;38537;47.226;39.702;2023-01-10T10:45:44;102653.75;;;-8.40;50.66
52651;BME280;38537;47.226;39.702;2023-01-10T10:48:20;102653.38;;;-8.79;51.09
52651;BME280;38537;47.226;39.702;2023-01-10T10:53:36;102637.78;;;-8.97;51.72
52651;BME280;38537;47.226;39.702;2023-01-10T10:56:06;102651.28;;;-8.86;51.65
52651;BME280;38537;47.226;39.702;2023-01-10T10:58:40;102669.25;;;-8.74;51.41
52651;BME280;38537;47.226;39.702;2023-01-10T11:01:15;102627.59;;;-8.30;52.65
52651;BME280;38537;47.226;39.702;2023-01-10T11:03:58;102655.63;;;-8.20;51.77
52651;BME280;38537;47.226;39.702;2023-01-10T11:06:29;102636.69;;;-8.52;51.20
52651;BME280;38537;47.226;39.702;2023-01-10T11:09:02;102660.88;;;-8.82;51.00
52651;BME280;38537;47.226;39.702;2023-01-10T11:11:33;102645.19;;;-9.44;51.41
52651;BME280;38537;47.226;39.702;2023-01-10T11:14:06;102636.22;;;-9.11;52.50
52651;BME280;38537;47.226;39.702;2023-01-10T11:16:39;102645.88;;;-8.86;52.14
52651;BME280;38537;47.226;39.702;2023-01-10T11:19:25;102642.72;;;-8.91;51.72
52651;BME280;38537;47.226;39.702;2023-01-10T11:21:59;102624.38;;;-8.99;51.96
52651;BME280;38537;47.226;39.702;2023-01-10T11:24:33;102636.56;;;-8.93;51.85
52651;BME280;38537;47.226;39.702;2023-01-10T11:27:04;102665.31;;;-8.81;51.11
52651;BME280;38537;47.226;39.702;2023-01-10T11:29:49;102637.44;;;-9.04;51.43
52651;BME280;38537;47.226;39.702;2023-01-10T11:32:19;102636.03;;;-8.87;51.73
52651;BME280;38537;47.226;39.702;2023-01-10T11:34:54;102649.63;;;-8.55;51.71
52651;BME280;38537;47.226;39.702;2023-01-10T11:37:27;102651.00;;;-8.61;50.93
52651;BME280;38537;47.226;39.702;2023-01-10T11:42:41;102649.34;;;-8.95;50.66
52651;BME280;38537;47.226;39.702;2023-01-10T11:47:56;102641.63;;;-9.11;50.90
52651;BME280;38537;47.226;39.702;2023-01-10T11:50:26;102647.16;;;-9.24;50.89
52651;BME280;38537;47.226;39.702;2023-01-10T11:52:56;102621.84;;;-9.23;51.12
52651;BME280;38537;47.226;39.702;2023-01-10T11:55:35;102673.34;;;-9.02;51.41
52651;BME280;38537;47.226;39.702;2023-01-10T11:58:05;102667.19;;;-9.26;50.61
52651;BME280;38537;47.226;39.702;2023-01-10T12:00:40;102674.94;;;-9.22;51.02
52651;BME280;38537;47.226;39.702;2023-01-10T12:05:53;102693.34;;;-9.60;50.73
52651;BME280;38537;47.226;39.702;2023-01-10T12:08:35;102672.84;;;-9.41;51.13
52651;BME280;38537;47.226;39.702;2023-01-10T12:11:05;102674.94;;;-9.44;51.34
52651;BME280;38537;47.226;39.702;2023-01-10T12:13:50;102684.28;;;-9.48;51.64
52651;BME280;38537;47.226;39.702;2023-01-10T12:16:20;102701.91;;;-9.78;51.24
52651;BME280;38537;47.226;39.702;2023-01-10T12:18:50;102703.03;;;-9.80;51.84
52651;BME280;38537;47.226;39.702;2023-01-10T12:21:43;102700.91;;;-9.88;51.91
52651;BME280;38537;47.226;39.702;2023-01-10T12:24:20;102713.28;;;-9.96;51.87
52651;BME280;38537;47.226;39.702;2023-01-10T12:26:50;102708.47;;;-9.93;51.96
52651;BME280;38537;47.226;39.702;2023-01-10T12:29:26;102702.38;;;-9.84;51.76
52651;BME280;38537;47.226;39.702;2023-01-10T12:31:55;102708.41;;;-9.80;51.93
52651;BME280;38537;47.226;39.702;2023-01-10T12:34:34;102730.91;;;-9.69;51.80
52651;BME280;38537;47.226;39.702;2023-01-10T12:40:03;102722.06;;;-9.71;51.69
52651;BME280;38537;47.226;39.702;2023-01-10T12:42:58;102721.31;;;-9.73;51.71
52651;BME280;38537;47.226;39.702;2023-01-10T12:45:52;102743.22;;;-9.76;51.05
52651;BME280;38537;47.226;39.702;2023-01-10T12:51:06;102725.66;;;-9.94;51.26
52651;BME280;38537;47.226;39.702;2023-01-10T12:53:43;102717.56;;;-9.94;51.38
52651;BME280;38537;47.226;39.702;2023-01-10T12:56:14;102718.22;;;-10.14;51.44
52651;BME280;38537;47.226;39.702;2023-01-10T12:58:45;102722.97;;;-10.29;51.53
52651;BME280;38537;47.226;39.702;2023-01-10T13:01:16;102729.56;;;-10.09;51.66
52651;BME280;38537;47.226;39.702;2023-01-10T13:03:51;102734.19;;;-9.87;51.61
52651;BME280;38537;47.226;39.702;2023-01-10T13:06:35;102708.25;;;-9.90;51.60
52651;BME280;38537;47.226;39.702;2023-01-10T13:09:20;102736.09;;;-9.65;51.64
52651;BME280;38537;47.226;39.702;2023-01-10T13:14:47;102728.16;;;-9.56;51.20
52651;BME280;38537;47.226;39.702;2023-01-10T13:22:47;102742.38;;;-9.65;50.34
52651;BME280;38537;47.226;39.702;2023-01-10T13:25:33;102769.56;;;-9.44;49.85
52651;BME280;38537;47.226;39.702;2023-01-10T13:28:25;102756.34;;;-10.06;49.91
52651;BME280;38537;47.226;39.702;2023-01-10T13:30:57;102753.03;;;-10.33;51.16
52651;BME280;38537;47.226;39.702;2023-01-10T13:33:30;102751.13;;;-9.96;51.52
52651;BME280;38537;47.226;39.702;2023-01-10T13:36:08;102742.53;;;-10.14;50.58
52651;BME280;38537;47.226;39.702;2023-01-10T13:38:50;102770.63;;;-10.17;50.93
52651;BME280;38537;47.226;39.702;2023-01-10T13:41:20;102757.06;;;-10.39;51.64
52651;BME280;38537;47.226;39.702;2023-01-10T13:44:14;102752.38;;;-10.61;51.42
52651;BME280;38537;47.226;39.702;2023-01-10T13:46:51;102755.53;;;-10.67;51.96
52651;BME280;38537;47.226;39.702;2023-01-10T13:49:25;102750.13;;;-10.67;51.72
52651;BME280;38537;47.226;39.702;2023-01-10T13:52:28;102761.78;;;-10.66;51.62
52651;BME280;38537;47.226;39.702;2023-01-10T13:55:01;102740.41;;;-10.69;52.02
52651;BME280;38537;47.226;39.702;2023-01-10T13:57:58;102747.41;;;-10.67;51.87
52651;BME280;38537;47.226;39.702;2023-01-10T14:00:42;102750.72;;;-10.51;52.39
52651;BME280;38537;47.226;39.702;2023-01-10T14:03:39;102747.47;;;-10.19;52.45
52651;BME280;38537;47.226;39.702;2023-01-10T14:08:58;102766.31;;;-10.67;51.01
52651;BME280;38537;47.226;39.702;2023-01-10T14:14:02;102765.72;;;-10.47;51.50
52651;BME280;38537;47.226;39.702;2023-01-10T14:16:35;102767.06;;;-10.28;52.31
52651;BME280;38537;47.226;39.702;2023-01-10T14:19:06;102767.03;;;-10.52;51.28
52651;BME280;38537;47.226;39.702;2023-01-10T14:21:51;102757.72;;;-10.85;51.36
52651;BME280;38537;47.226;39.702;2023-01-10T14:24:41;102772.19;;;-10.98;52.47
52651;BME280;38537;47.226;39.702;2023-01-10T14:27:15;102747.50;;;-11.05;52.81
52651;BME280;38537;47.226;39.702;2023-01-10T14:29:52;102760.59;;;-10.62;52.46